sensor_id;sensor_type;location;lat;lon;timestamp;temperature;humidity
19039;DHT22;9652;49.014;12.052;2023-04-01T00:02:15;12.00;76.60
19039;DHT22;9652;49.014;12.052;2023-04-01T00:04:42;12.00;76.60
19039;DHT22;9652;49.014;12.052;2023-04-01T00:07:11;12.00;76.60
19039;DHT22;9652;49.014;12.052;2023-04-01T00:09:39;12.00;76.70
19039;DHT22;9652;49.014;12.052;2023-04-01T00:12:06;12.10;76.80
19039;DHT22;9652;49.014;12.052;2023-04-01T00:14:33;12.10;76.60
19039;DHT22;9652;49.014;12.052;2023-04-01T00:17:03;12.10;76.60
19039;DHT22;9652;49.014;12.052;2023-04-01T00:19:31;12.20;76.50
19039;DHT22;9652;49.014;12.052;2023-04-01T00:21:58;12.20;76.30
19039;DHT22;9652;49.014;12.052;2023-04-01T00:24:25;12.20;76.20
19039;DHT22;9652;49.014;12.052;2023-04-01T00:26:52;12.20;76.10
19039;DHT22;9652;49.014;12.052;2023-04-01T00:29:19;12.20;75.80
19039;DHT22;9652;49.014;12.052;2023-04-01T00:31:47;12.30;75.60
19039;DHT22;9652;49.014;12.052;2023-04-01T00:34:16;12.20;75.60
19039;DHT22;9652;49.014;12.052;2023-04-01T00:36:43;12.20;75.60
19039;DHT22;9652;49.014;12.052;2023-04-01T00:39:10;12.20;75.60
19039;DHT22;9652;49.014;12.052;2023-04-01T00:41:37;12.30;75.60
19039;DHT22;9652;49.014;12.052;2023-04-01T00:44:17;12.20;75.30
19039;DHT22;9652;49.014;12.052;2023-04-01T00:46:46;12.20;74.70
19039;DHT22;9652;49.014;12.052;2023-04-01T00:49:15;12.20;74.90
19039;DHT22;9652;49.014;12.052;2023-04-01T00:51:47;12.20;74.90
19039;DHT22;9652;49.014;12.052;2023-04-01T00:54:18;12.20;74.90
19039;DHT22;9652;49.014;12.052;2023-04-01T00:56:49;12.20;74.90
19039;DHT22;9652;49.014;12.052;2023-04-01T00:59:25;12.20;74.90
19039;DHT22;9652;49.014;12.052;2023-04-01T01:01:54;12.10;75.00
19039;DHT22;9652;49.014;12.052;2023-04-01T01:04:25;12.20;75.10
19039;DHT22;9652;49.014;12.052;2023-04-01T01:07:00;12.20;75.10
19039;DHT22;9652;49.014;12.052;2023-04-01T01:09:44;12.10;75.00
19039;DHT22;9652;49.014;12.052;2023-04-01T01:12:19;12.10;74.60
19039;DHT22;9652;49.014;12.052;2023-04-01T01:15:03;12.20;74.60
19039;DHT22;9652;49.014;12.052;2023-04-01T01:17:44;12.10;74.30
19039;DHT22;9652;49.014;12.052;2023-04-01T01:20:50;12.10;74.30
19039;DHT22;9652;49.014;12.052;2023-04-01T01:26:59;12.20;74.30
19039;DHT22;9652;49.014;12.052;2023-04-01T01:35:49;12.20;74.40
19039;DHT22;9652;49.014;12.052;2023-04-01T01:38:23;12.20;74.60
19039;DHT22;9652;49.014;12.052;2023-04-01T01:41:02;12.20;74.50
19039;DHT22;9652;49.014;12.052;2023-04-01T01:43:35;12.20;74.40
19039;DHT22;9652;49.014;12.052;2023-04-01T01:46:07;12.20;74.40
19039;DHT22;9652;49.014;12.052;2023-04-01T01:48:40;12.20;74.40
19039;DHT22;9652;49.014;12.052;2023-04-01T01:51:10;12.20;74.40
19039;DHT22;9652;49.014;12.052;2023-04-01T01:53:38;12.20;74.60
19039;DHT22;9652;49.014;12.052;2023-04-01T01:56:05;12.20;74.60
19039;DHT22;9652;49.014;12.052;2023-04-01T01:58:40;12.20;74.60
19039;DHT22;9652;49.014;12.052;2023-04-01T02:01:16;12.30;74.40
19039;DHT22;9652;49.014;12.052;2023-04-01T02:03:46;12.30;74.30
19039;DHT22;9652;49.014;12.052;2023-04-01T02:06:18;12.20;74.30
19039;DHT22;9652;49.014;12.052;2023-04-01T02:08:50;12.30;74.10
19039;DHT22;9652;49.014;12.052;2023-04-01T02:11:24;12.30;74.30
19039;DHT22;9652;49.014;12.052;2023-04-01T02:13:55;12.30;74.00
19039;DHT22;9652;49.014;12.052;2023-04-01T02:16:31;12.40;74.10
19039;DHT22;9652;49.014;12.052;2023-04-01T02:19:03;12.30;73.90
19039;DHT22;9652;49.014;12.052;2023-04-01T02:21:35;12.30;73.60
19039;DHT22;9652;49.014;12.052;2023-04-01T02:24:05;12.40;73.60
19039;DHT22;9652;49.014;12.052;2023-04-01T02:26:36;12.30;73.30
19039;DHT22;9652;49.014;12.052;2023-04-01T02:29:05;12.30;73.20
19039;DHT22;9652;49.014;12.052;2023-04-01T02:31:34;12.30;73.20
19039;DHT22;9652;49.014;12.052;2023-04-01T02:34:02;12.30;73.30
19039;DHT22;9652;49.014;12.052;2023-04-01T02:36:31;12.20;73.40
19039;DHT22;9652;49.014;12.052;2023-04-01T02:39:00;12.20;73.50
19039;DHT22;9652;49.014;12.052;2023-04-01T02:41:30;12.20;73.60
19039;DHT22;9652;49.014;12.052;2023-04-01T02:43:57;12.20;73.70
19039;DHT22;9652;49.014;12.052;2023-04-01T02:46:25;12.20;73.60
19039;DHT22;9652;49.014;12.052;2023-04-01T02:48:52;12.20;73.70
19039;DHT22;9652;49.014;12.052;2023-04-01T02:51:19;12.10;73.60
19039;DHT22;9652;49.014;12.052;2023-04-01T02:53:46;12.10;73.70
19039;DHT22;9652;49.014;12.052;2023-04-01T02:56:15;12.10;73.70
19039;DHT22;9652;49.014;12.052;2023-04-01T02:58:42;12.10;73.80
19039;DHT22;9652;49.014;12.052;2023-04-01T03:01:10;12.20;73.80
19039;DHT22;9652;49.014;12.052;2023-04-01T03:03:37;12.10;73.70
19039;DHT22;9652;49.014;12.052;2023-04-01T03:06:05;12.20;73.80
19039;DHT22;9652;49.014;12.052;2023-04-01T03:08:33;12.20;73.90
19039;DHT22;9652;49.014;12.052;2023-04-01T03:11:00;12.20;73.90
19039;DHT22;9652;49.014;12.052;2023-04-01T03:13:30;12.20;73.80
19039;DHT22;9652;49.014;12.052;2023-04-01T03:15:57;12.20;73.80
19039;DHT22;9652;49.014;12.052;2023-04-01T03:18:24;12.20;73.90
19039;DHT22;9652;49.014;12.052;2023-04-01T03:20:51;12.20;73.70
19039;DHT22;9652;49.014;12.052;2023-04-01T03:23:18;12.20;73.50
19039;DHT22;9652;49.014;12.052;2023-04-01T03:25:47;12.20;73.20
19039;DHT22;9652;49.014;12.052;2023-04-01T03:28:15;12.20;72.90
19039;DHT22;9652;49.014;12.052;2023-04-01T03:30:44;12.20;72.60
19039;DHT22;9652;49.014;12.052;2023-04-01T03:33:11;12.30;72.60
19039;DHT22;9652;49.014;12.052;2023-04-01T03:35:39;12.10;72.60
19039;DHT22;9652;49.014;12.052;2023-04-01T03:38:06;12.10;72.90
19039;DHT22;9652;49.014;12.052;2023-04-01T03:40:33;12.00;73.00
19039;DHT22;9652;49.014;12.052;2023-04-01T03:43:02;12.00;73.20
19039;DHT22;9652;49.014;12.052;2023-04-01T03:45:33;12.00;73.20
19039;DHT22;9652;49.014;12.052;2023-04-01T03:48:02;12.00;73.30
19039;DHT22;9652;49.014;12.052;2023-04-01T03:50:30;12.00;73.20
19039;DHT22;9652;49.014;12.052;2023-04-01T03:52:57;12.00;73.20
19039;DHT22;9652;49.014;12.052;2023-04-01T03:55:24;12.00;73.20
19039;DHT22;9652;49.014;12.052;2023-04-01T03:57:51;12.00;73.30
19039;DHT22;9652;49.014;12.052;2023-04-01T04:00:19;12.00;73.20
19039;DHT22;9652;49.014;12.052;2023-04-01T04:02:52;12.00;72.90
19039;DHT22;9652;49.014;12.052;2023-04-01T04:05:27;12.00;72.70
19039;DHT22;9652;49.014;12.052;2023-04-01T04:07:54;12.00;72.80
19039;DHT22;9652;49.014;12.052;2023-04-01T04:10:21;12.00;72.80
19039;DHT22;9652;49.014;12.052;2023-04-01T04:12:51;11.90;72.70
19039;DHT22;9652;49.014;12.052;2023-04-01T04:15:21;12.00;72.80
19039;DHT22;9652;49.014;12.052;2023-04-01T04:17:49;11.90;72.80
19039;DHT22;9652;49.014;12.052;2023-04-01T04:20:16;11.90;73.00
19039;DHT22;9652;49.014;12.052;2023-04-01T04:22:45;11.90;73.10
19039;DHT22;9652;49.014;12.052;2023-04-01T04:25:12;11.90;73.10
19039;DHT22;9652;49.014;12.052;2023-04-01T04:27:39;11.90;73.20
19039;DHT22;9652;49.014;12.052;2023-04-01T04:30:09;11.90;73.90
19039;DHT22;9652;49.014;12.052;2023-04-01T04:32:37;11.90;73.20
19039;DHT22;9652;49.014;12.052;2023-04-01T04:35:05;11.90;73.30
19039;DHT22;9652;49.014;12.052;2023-04-01T04:37:33;11.90;73.40
19039;DHT22;9652;49.014;12.052;2023-04-01T04:40:02;12.00;73.50
19039;DHT22;9652;49.014;12.052;2023-04-01T04:42:31;12.00;73.30
19039;DHT22;9652;49.014;12.052;2023-04-01T04:45:05;11.90;73.30
19039;DHT22;9652;49.014;12.052;2023-04-01T04:47:32;11.90;73.50
19039;DHT22;9652;49.014;12.052;2023-04-01T04:49:59;11.90;73.60
19039;DHT22;9652;49.014;12.052;2023-04-01T04:52:27;11.90;73.70
19039;DHT22;9652;49.014;12.052;2023-04-01T04:54:55;11.90;73.30
19039;DHT22;9652;49.014;12.052;2023-04-01T04:57:23;11.90;73.10
19039;DHT22;9652;49.014;12.052;2023-04-01T04:59:54;11.80;72.80
19039;DHT22;9652;49.014;12.052;2023-04-01T05:02:33;11.80;72.70
19039;DHT22;9652;49.014;12.052;2023-04-01T05:05:00;11.70;72.50
19039;DHT22;9652;49.014;12.052;2023-04-01T05:07:27;11.70;72.60
19039;DHT22;9652;49.014;12.052;2023-04-01T05:09:54;11.60;72.70
19039;DHT22;9652;49.014;12.052;2023-04-01T05:12:23;11.60;72.70
19039;DHT22;9652;49.014;12.052;2023-04-01T05:14:55;11.50;72.80
19039;DHT22;9652;49.014;12.052;2023-04-01T05:17:23;11.50;73.00
19039;DHT22;9652;49.014;12.052;2023-04-01T05:19:50;11.50;73.20
19039;DHT22;9652;49.014;12.052;2023-04-01T05:22:17;11.50;73.50
19039;DHT22;9652;49.014;12.052;2023-04-01T05:24:44;11.50;73.70
19039;DHT22;9652;49.014;12.052;2023-04-01T05:27:12;11.50;74.00
19039;DHT22;9652;49.014;12.052;2023-04-01T05:29:42;11.50;74.20
19039;DHT22;9652;49.014;12.052;2023-04-01T05:32:25;11.60;74.40
19039;DHT22;9652;49.014;12.052;2023-04-01T05:34:53;11.60;74.50
19039;DHT22;9652;49.014;12.052;2023-04-01T05:37:20;11.70;74.60
19039;DHT22;9652;49.014;12.052;2023-04-01T05:39:48;11.80;74.50
19039;DHT22;9652;49.014;12.052;2023-04-01T05:42:17;11.80;74.50
19039;DHT22;9652;49.014;12.052;2023-04-01T05:44:45;12.00;74.50
19039;DHT22;9652;49.014;12.052;2023-04-01T05:47:48;12.00;74.50
19039;DHT22;9652;49.014;12.052;2023-04-01T05:50:17;12.00;74.50
19039;DHT22;9652;49.014;12.052;2023-04-01T05:52:44;12.10;74.60
19039;DHT22;9652;49.014;12.052;2023-04-01T05:55:11;12.20;74.60
19039;DHT22;9652;49.014;12.052;2023-04-01T05:57:39;12.20;75.30
19039;DHT22;9652;49.014;12.052;2023-04-01T06:00:08;12.30;74.30
19039;DHT22;9652;49.014;12.052;2023-04-01T06:02:40;12.30;74.10
19039;DHT22;9652;49.014;12.052;2023-04-01T06:05:14;12.40;74.30
19039;DHT22;9652;49.014;12.052;2023-04-01T06:07:44;12.50;73.90
19039;DHT22;9652;49.014;12.052;2023-04-01T06:10:15;12.50;74.00
19039;DHT22;9652;49.014;12.052;2023-04-01T06:12:53;12.60;73.80
19039;DHT22;9652;49.014;12.052;2023-04-01T06:15:36;12.60;73.50
19039;DHT22;9652;49.014;12.052;2023-04-01T06:18:55;12.70;73.40
19039;DHT22;9652;49.014;12.052;2023-04-01T06:21:55;12.70;72.90
19039;DHT22;9652;49.014;12.052;2023-04-01T06:25:10;12.80;72.50
19039;DHT22;9652;49.014;12.052;2023-04-01T06:28:13;12.80;72.70
19039;DHT22;9652;49.014;12.052;2023-04-01T06:31:10;12.90;73.10
19039;DHT22;9652;49.014;12.052;2023-04-01T06:34:11;12.80;72.70
19039;DHT22;9652;49.014;12.052;2023-04-01T06:37:02;13.00;72.30
19039;DHT22;9652;49.014;12.052;2023-04-01T06:39:55;13.10;72.40
19039;DHT22;9652;49.014;12.052;2023-04-01T06:42:44;13.10;72.10
19039;DHT22;9652;49.014;12.052;2023-04-01T06:45:43;13.10;71.80
19039;DHT22;9652;49.014;12.052;2023-04-01T06:48:49;13.10;71.90
19039;DHT22;9652;49.014;12.052;2023-04-01T06:52:16;13.20;71.80
19039;DHT22;9652;49.014;12.052;2023-04-01T06:55:19;13.20;72.00
19039;DHT22;9652;49.014;12.052;2023-04-01T06:58:15;13.30;71.60
19039;DHT22;9652;49.014;12.052;2023-04-01T07:00:50;13.30;72.00
19039;DHT22;9652;49.014;12.052;2023-04-01T07:03:26;13.30;71.80
19039;DHT22;9652;49.014;12.052;2023-04-01T07:06:04;13.30;71.60
19039;DHT22;9652;49.014;12.052;2023-04-01T07:08:40;13.40;71.60
19039;DHT22;9652;49.014;12.052;2023-04-01T07:11:14;13.40;71.60
19039;DHT22;9652;49.014;12.052;2023-04-01T07:14:18;13.40;71.60
19039;DHT22;9652;49.014;12.052;2023-04-01T07:16:51;13.50;71.60
19039;DHT22;9652;49.014;12.052;2023-04-01T07:19:29;13.60;71.80
19039;DHT22;9652;49.014;12.052;2023-04-01T07:22:14;13.70;71.50
19039;DHT22;9652;49.014;12.052;2023-04-01T07:25:23;13.70;71.10
19039;DHT22;9652;49.014;12.052;2023-04-01T07:28:13;13.80;72.50
19039;DHT22;9652;49.014;12.052;2023-04-01T07:30:52;13.90;71.90
19039;DHT22;9652;49.014;12.052;2023-04-01T07:33:37;14.00;71.10
19039;DHT22;9652;49.014;12.052;2023-04-01T07:36:12;14.10;71.10
19039;DHT22;9652;49.014;12.052;2023-04-01T07:38:52;14.20;71.40
19039;DHT22;9652;49.014;12.052;2023-04-01T07:41:51;14.40;71.20
19039;DHT22;9652;49.014;12.052;2023-04-01T07:44:34;14.40;70.90
19039;DHT22;9652;49.014;12.052;2023-04-01T07:47:22;14.60;70.70
19039;DHT22;9652;49.014;12.052;2023-04-01T07:50:08;14.70;70.80
19039;DHT22;9652;49.014;12.052;2023-04-01T07:52:49;14.90;70.30
19039;DHT22;9652;49.014;12.052;2023-04-01T07:55:34;15.00;69.70
19039;DHT22;9652;49.014;12.052;2023-04-01T07:58:13;15.10;69.30
19039;DHT22;9652;49.014;12.052;2023-04-01T08:00:50;15.20;69.30
19039;DHT22;9652;49.014;12.052;2023-04-01T08:03:36;15.30;68.50
19039;DHT22;9652;49.014;12.052;2023-04-01T08:06:17;15.40;68.50
19039;DHT22;9652;49.014;12.052;2023-04-01T08:08:59;15.50;68.50
19039;DHT22;9652;49.014;12.052;2023-04-01T08:12:04;15.50;68.30
19039;DHT22;9652;49.014;12.052;2023-04-01T08:15:21;15.70;68.20
19039;DHT22;9652;49.014;12.052;2023-04-01T08:18:17;15.80;68.20
19039;DHT22;9652;49.014;12.052;2023-04-01T08:20:58;15.90;67.10
19039;DHT22;9652;49.014;12.052;2023-04-01T08:23:30;15.90;67.10
19039;DHT22;9652;49.014;12.052;2023-04-01T08:26:04;16.00;66.50
19039;DHT22;9652;49.014;12.052;2023-04-01T08:28:43;16.00;66.50
19039;DHT22;9652;49.014;12.052;2023-04-01T08:31:18;16.00;66.10
19039;DHT22;9652;49.014;12.052;2023-04-01T08:33:53;16.00;65.80
19039;DHT22;9652;49.014;12.052;2023-04-01T08:36:24;16.00;65.90
19039;DHT22;9652;49.014;12.052;2023-04-01T08:39:16;16.00;65.00
19039;DHT22;9652;49.014;12.052;2023-04-01T08:42:24;16.10;65.00
19039;DHT22;9652;49.014;12.052;2023-04-01T08:45:20;16.10;64.10
19039;DHT22;9652;49.014;12.052;2023-04-01T08:48:17;16.20;65.40
19039;DHT22;9652;49.014;12.052;2023-04-01T08:51:12;16.30;64.40
19039;DHT22;9652;49.014;12.052;2023-04-01T08:54:14;16.40;65.00
19039;DHT22;9652;49.014;12.052;2023-04-01T08:57:01;16.50;64.70
19039;DHT22;9652;49.014;12.052;2023-04-01T08:59:47;16.70;65.00
19039;DHT22;9652;49.014;12.052;2023-04-01T09:06:23;16.80;63.70
19039;DHT22;9652;49.014;12.052;2023-04-01T09:09:27;17.00;63.60
19039;DHT22;9652;49.014;12.052;2023-04-01T09:15:42;17.10;62.30
19039;DHT22;9652;49.014;12.052;2023-04-01T09:18:42;17.20;62.70
19039;DHT22;9652;49.014;12.052;2023-04-01T09:21:47;17.20;62.10
19039;DHT22;9652;49.014;12.052;2023-04-01T09:24:43;17.30;61.60
19039;DHT22;9652;49.014;12.052;2023-04-01T09:27:27;17.30;62.20
19039;DHT22;9652;49.014;12.052;2023-04-01T09:30:39;17.30;61.80
19039;DHT22;9652;49.014;12.052;2023-04-01T09:37:10;17.40;61.10
19039;DHT22;9652;49.014;12.052;2023-04-01T09:39:56;17.60;62.40
19039;DHT22;9652;49.014;12.052;2023-04-01T09:42:45;17.60;62.10
19039;DHT22;9652;49.014;12.052;2023-04-01T09:45:37;17.70;62.10
19039;DHT22;9652;49.014;12.052;2023-04-01T09:48:25;17.70;61.90
19039;DHT22;9652;49.014;12.052;2023-04-01T09:51:17;17.70;61.40
19039;DHT22;9652;49.014;12.052;2023-04-01T09:54:04;17.70;60.70
19039;DHT22;9652;49.014;12.052;2023-04-01T10:00:40;17.60;59.90
19039;DHT22;9652;49.014;12.052;2023-04-01T10:04:00;17.50;60.20
19039;DHT22;9652;49.014;12.052;2023-04-01T10:06:57;17.40;60.40
19039;DHT22;9652;49.014;12.052;2023-04-01T10:16:57;17.40;60.90
19039;DHT22;9652;49.014;12.052;2023-04-01T10:20:07;17.40;60.90
19039;DHT22;9652;49.014;12.052;2023-04-01T10:23:12;17.40;59.80
19039;DHT22;9652;49.014;12.052;2023-04-01T10:30:14;17.40;59.90
19039;DHT22;9652;49.014;12.052;2023-04-01T10:33:33;17.50;59.70
19039;DHT22;9652;49.014;12.052;2023-04-01T10:36:35;17.50;58.20
19039;DHT22;9652;49.014;12.052;2023-04-01T10:39:33;17.60;59.50
19039;DHT22;9652;49.014;12.052;2023-04-01T10:49:32;17.90;59.60
19039;DHT22;9652;49.014;12.052;2023-04-01T10:52:35;18.00;59.50
19039;DHT22;9652;49.014;12.052;2023-04-01T10:55:53;18.00;59.20
19039;DHT22;9652;49.014;12.052;2023-04-01T10:59:35;18.10;58.00
19039;DHT22;9652;49.014;12.052;2023-04-01T11:06:59;18.00;58.40
19039;DHT22;9652;49.014;12.052;2023-04-01T11:17:27;18.20;58.20
19039;DHT22;9652;49.014;12.052;2023-04-01T11:23:47;18.10;58.10
19039;DHT22;9652;49.014;12.052;2023-04-01T11:26:33;18.10;57.80
19039;DHT22;9652;49.014;12.052;2023-04-01T11:29:50;18.00;58.10
19039;DHT22;9652;49.014;12.052;2023-04-01T11:32:42;18.00;58.40
19039;DHT22;9652;49.014;12.052;2023-04-01T11:35:40;17.90;58.60
19039;DHT22;9652;49.014;12.052;2023-04-01T11:38:25;17.80;58.60
19039;DHT22;9652;49.014;12.052;2023-04-01T11:41:07;17.60;59.10
19039;DHT22;9652;49.014;12.052;2023-04-01T11:44:15;17.40;60.00
19039;DHT22;9652;49.014;12.052;2023-04-01T11:47:22;17.30;61.70
19039;DHT22;9652;49.014;12.052;2023-04-01T11:50:21;17.10;60.60
19039;DHT22;9652;49.014;12.052;2023-04-01T11:53:02;16.90;60.80
19039;DHT22;9652;49.014;12.052;2023-04-01T11:55:47;16.80;61.40
19039;DHT22;9652;49.014;12.052;2023-04-01T11:59:04;16.70;62.00
19039;DHT22;9652;49.014;12.052;2023-04-01T12:01:56;16.60;61.60
19039;DHT22;9652;49.014;12.052;2023-04-01T12:04:54;16.50;61.90
19039;DHT22;9652;49.014;12.052;2023-04-01T12:07:50;16.50;62.50
19039;DHT22;9652;49.014;12.052;2023-04-01T12:10:36;16.30;63.00
19039;DHT22;9652;49.014;12.052;2023-04-01T12:13:14;16.30;63.20
19039;DHT22;9652;49.014;12.052;2023-04-01T12:16:10;16.30;63.50
19039;DHT22;9652;49.014;12.052;2023-04-01T12:18:50;16.20;63.60
19039;DHT22;9652;49.014;12.052;2023-04-01T12:21:26;16.20;63.80
19039;DHT22;9652;49.014;12.052;2023-04-01T12:24:15;16.20;63.90
19039;DHT22;9652;49.014;12.052;2023-04-01T12:27:35;16.20;63.80
19039;DHT22;9652;49.014;12.052;2023-04-01T12:30:40;16.20;64.10
19039;DHT22;9652;49.014;12.052;2023-04-01T12:33:26;16.10;64.40
19039;DHT22;9652;49.014;12.052;2023-04-01T12:36:11;16.00;64.30
19039;DHT22;9652;49.014;12.052;2023-04-01T12:38:57;15.90;64.60
19039;DHT22;9652;49.014;12.052;2023-04-01T12:41:50;15.80;65.10
19039;DHT22;9652;49.014;12.052;2023-04-01T12:44:35;15.80;65.50
19039;DHT22;9652;49.014;12.052;2023-04-01T12:47:55;15.80;66.20
19039;DHT22;9652;49.014;12.052;2023-04-01T12:51:29;15.80;66.30
19039;DHT22;9652;49.014;12.052;2023-04-01T12:54:33;15.90;65.60
19039;DHT22;9652;49.014;12.052;2023-04-01T12:57:33;15.80;65.50
19039;DHT22;9652;49.014;12.052;2023-04-01T13:00:42;15.80;65.60
19039;DHT22;9652;49.014;12.052;2023-04-01T13:07:10;15.60;65.60
19039;DHT22;9652;49.014;12.052;2023-04-01T13:09:56;15.50;65.50
19039;DHT22;9652;49.014;12.052;2023-04-01T13:12:44;15.50;65.50
19039;DHT22;9652;49.014;12.052;2023-04-01T13:15:30;15.50;65.80
19039;DHT22;9652;49.014;12.052;2023-04-01T13:18:11;15.30;65.90
19039;DHT22;9652;49.014;12.052;2023-04-01T13:20:53;15.40;66.00
19039;DHT22;9652;49.014;12.052;2023-04-01T13:23:37;15.30;66.30
19039;DHT22;9652;49.014;12.052;2023-04-01T13:26:21;15.20;66.60
19039;DHT22;9652;49.014;12.052;2023-04-01T13:29:00;15.20;66.40
19039;DHT22;9652;49.014;12.052;2023-04-01T13:31:48;15.20;66.60
19039;DHT22;9652;49.014;12.052;2023-04-01T13:34:37;15.20;66.80
19039;DHT22;9652;49.014;12.052;2023-04-01T13:37:24;15.30;67.50
19039;DHT22;9652;49.014;12.052;2023-04-01T13:40:21;15.20;67.10
19039;DHT22;9652;49.014;12.052;2023-04-01T13:43:04;15.20;67.10
19039;DHT22;9652;49.014;12.052;2023-04-01T13:45:46;15.20;67.10
19039;DHT22;9652;49.014;12.052;2023-04-01T13:48:32;15.10;67.30
19039;DHT22;9652;49.014;12.052;2023-04-01T13:51:39;15.10;67.60
19039;DHT22;9652;49.014;12.052;2023-04-01T13:57:52;14.90;68.60
19039;DHT22;9652;49.014;12.052;2023-04-01T14:00:38;14.90;68.80
19039;DHT22;9652;49.014;12.052;2023-04-01T14:03:30;14.90;68.60
19039;DHT22;9652;49.014;12.052;2023-04-01T14:06:14;14.80;68.80
19039;DHT22;9652;49.014;12.052;2023-04-01T14:12:01;14.80;68.90
19039;DHT22;9652;49.014;12.052;2023-04-01T14:14:44;14.80;69.20
19039;DHT22;9652;49.014;12.052;2023-04-01T14:17:36;14.70;69.40
19039;DHT22;9652;49.014;12.052;2023-04-01T14:20:25;14.80;69.60
19039;DHT22;9652;49.014;12.052;2023-04-01T14:26:50;14.80;70.20
19039;DHT22;9652;49.014;12.052;2023-04-01T14:29:38;14.90;70.10
19039;DHT22;9652;49.014;12.052;2023-04-01T14:32:15;14.90;70.30
19039;DHT22;9652;49.014;12.052;2023-04-01T14:35:05;14.90;70.30
19039;DHT22;9652;49.014;12.052;2023-04-01T14:38:24;14.90;70.50
19039;DHT22;9652;49.014;12.052;2023-04-01T14:41:06;15.00;70.20
19039;DHT22;9652;49.014;12.052;2023-04-01T14:47:04;15.00;69.90
19039;DHT22;9652;49.014;12.052;2023-04-01T14:49:49;15.00;69.90
19039;DHT22;9652;49.014;12.052;2023-04-01T14:52:25;14.90;69.50
19039;DHT22;9652;49.014;12.052;2023-04-01T14:54:56;14.90;69.80
19039;DHT22;9652;49.014;12.052;2023-04-01T14:57:26;14.90;69.80
19039;DHT22;9652;49.014;12.052;2023-04-01T15:00:00;14.80;69.80
19039;DHT22;9652;49.014;12.052;2023-04-01T15:02:48;14.80;69.80
19039;DHT22;9652;49.014;12.052;2023-04-01T15:05:38;14.70;70.20
19039;DHT22;9652;49.014;12.052;2023-04-01T15:08:19;14.80;70.50
19039;DHT22;9652;49.014;12.052;2023-04-01T15:11:10;14.80;70.40
19039;DHT22;9652;49.014;12.052;2023-04-01T15:14:37;14.90;70.10
19039;DHT22;9652;49.014;12.052;2023-04-01T15:17:37;14.80;70.30
19039;DHT22;9652;49.014;12.052;2023-04-01T15:20:45;14.80;70.40
19039;DHT22;9652;49.014;12.052;2023-04-01T15:23:37;14.80;70.70
19039;DHT22;9652;49.014;12.052;2023-04-01T15:26:33;14.80;70.80
19039;DHT22;9652;49.014;12.052;2023-04-01T15:29:29;14.80;70.30
19039;DHT22;9652;49.014;12.052;2023-04-01T15:32:17;14.80;69.90
19039;DHT22;9652;49.014;12.052;2023-04-01T15:34:56;14.80;69.80
19039;DHT22;9652;49.014;12.052;2023-04-01T15:37:35;14.90;69.80
19039;DHT22;9652;49.014;12.052;2023-04-01T15:40:18;14.80;69.80
19039;DHT22;9652;49.014;12.052;2023-04-01T15:42:59;14.80;69.80
19039;DHT22;9652;49.014;12.052;2023-04-01T15:45:45;14.90;69.80
19039;DHT22;9652;49.014;12.052;2023-04-01T15:48:32;14.90;69.70
19039;DHT22;9652;49.014;12.052;2023-04-01T15:51:27;14.90;69.40
19039;DHT22;9652;49.014;12.052;2023-04-01T15:54:25;14.90;69.10
19039;DHT22;9652;49.014;12.052;2023-04-01T15:57:11;14.80;69.10
19039;DHT22;9652;49.014;12.052;2023-04-01T16:00:10;14.80;70.10
19039;DHT22;9652;49.014;12.052;2023-04-01T16:03:08;14.80;69.10
19039;DHT22;9652;49.014;12.052;2023-04-01T16:05:54;14.90;69.20
19039;DHT22;9652;49.014;12.052;2023-04-01T16:08:59;14.80;68.90
19039;DHT22;9652;49.014;12.052;2023-04-01T16:11:43;14.80;68.80
19039;DHT22;9652;49.014;12.052;2023-04-01T16:14:28;14.80;68.60
19039;DHT22;9652;49.014;12.052;2023-04-01T16:17:21;14.80;68.40
19039;DHT22;9652;49.014;12.052;2023-04-01T16:20:01;14.80;68.60
19039;DHT22;9652;49.014;12.052;2023-04-01T16:22:37;14.80;68.70
19039;DHT22;9652;49.014;12.052;2023-04-01T16:25:32;14.70;68.60
19039;DHT22;9652;49.014;12.052;2023-04-01T16:28:19;14.70;68.70
19039;DHT22;9652;49.014;12.052;2023-04-01T16:30:58;14.70;68.70
19039;DHT22;9652;49.014;12.052;2023-04-01T16:33:36;14.70;68.90
19039;DHT22;9652;49.014;12.052;2023-04-01T16:36:21;14.70;68.80
19039;DHT22;9652;49.014;12.052;2023-04-01T16:39:12;14.60;69.10
19039;DHT22;9652;49.014;12.052;2023-04-01T16:41:59;14.60;69.30
19039;DHT22;9652;49.014;12.052;2023-04-01T16:44:49;14.60;69.30
19039;DHT22;9652;49.014;12.052;2023-04-01T16:47:21;14.50;69.30
19039;DHT22;9652;49.014;12.052;2023-04-01T16:49:59;14.50;69.30
19039;DHT22;9652;49.014;12.052;2023-04-01T16:52:43;14.50;69.40
19039;DHT22;9652;49.014;12.052;2023-04-01T16:55:42;14.40;69.50
19039;DHT22;9652;49.014;12.052;2023-04-01T16:58:21;14.30;69.40
19039;DHT22;9652;49.014;12.052;2023-04-01T17:00:58;14.30;69.40
19039;DHT22;9652;49.014;12.052;2023-04-01T17:03:33;14.30;69.50
19039;DHT22;9652;49.014;12.052;2023-04-01T17:06:14;14.20;69.40
19039;DHT22;9652;49.014;12.052;2023-04-01T17:09:05;14.20;69.50
19039;DHT22;9652;49.014;12.052;2023-04-01T17:11:56;14.10;69.60
19039;DHT22;9652;49.014;12.052;2023-04-01T17:14:40;14.10;69.60
19039;DHT22;9652;49.014;12.052;2023-04-01T17:17:27;14.00;69.70
19039;DHT22;9652;49.014;12.052;2023-04-01T17:20:12;13.90;69.90
19039;DHT22;9652;49.014;12.052;2023-04-01T17:22:54;13.90;70.70
19039;DHT22;9652;49.014;12.052;2023-04-01T17:25:37;13.90;69.90
19039;DHT22;9652;49.014;12.052;2023-04-01T17:28:23;13.80;69.90
19039;DHT22;9652;49.014;12.052;2023-04-01T17:31:04;13.80;69.90
19039;DHT22;9652;49.014;12.052;2023-04-01T17:33:53;13.80;69.80
19039;DHT22;9652;49.014;12.052;2023-04-01T17:36:36;13.70;69.90
19039;DHT22;9652;49.014;12.052;2023-04-01T17:42:16;13.70;70.40
19039;DHT22;9652;49.014;12.052;2023-04-01T17:44:54;13.60;70.30
19039;DHT22;9652;49.014;12.052;2023-04-01T17:47:41;13.60;70.30
19039;DHT22;9652;49.014;12.052;2023-04-01T17:50:23;13.60;70.40
19039;DHT22;9652;49.014;12.052;2023-04-01T17:53:07;13.60;70.40
19039;DHT22;9652;49.014;12.052;2023-04-01T17:55:51;13.50;70.60
19039;DHT22;9652;49.014;12.052;2023-04-01T17:58:30;13.50;70.50
19039;DHT22;9652;49.014;12.052;2023-04-01T18:01:23;13.50;70.50
19039;DHT22;9652;49.014;12.052;2023-04-01T18:04:09;13.50;70.60
19039;DHT22;9652;49.014;12.052;2023-04-01T18:10:08;13.40;70.50
19039;DHT22;9652;49.014;12.052;2023-04-01T18:13:00;13.40;70.50
19039;DHT22;9652;49.014;12.052;2023-04-01T18:15:53;13.40;70.60
19039;DHT22;9652;49.014;12.052;2023-04-01T18:18:43;13.40;70.60
19039;DHT22;9652;49.014;12.052;2023-04-01T18:21:25;13.40;70.80
19039;DHT22;9652;49.014;12.052;2023-04-01T18:24:10;13.40;70.80
19039;DHT22;9652;49.014;12.052;2023-04-01T18:26:49;13.40;70.80
19039;DHT22;9652;49.014;12.052;2023-04-01T18:29:33;13.40;70.90